Time;durP1;ratioP1;P1;durP2;ratioP2;P2;SDS_P1;SDS_P2;PMS_P1;PMS_P2;Temp;Humidity;BMP_temperature;BMP_pressure;BME280_temperature;BME280_humidity;BME280_pressure;Samples;Min_cycle;Max_cycle;Signal;HPM_P1;HPM_P2
2021/07/08 00:02:07;;;;;;;5.70;4.45;;;17.00;99.90;;;;;;4998468;28;20041;-89
2021/07/08 00:04:34;;;;;;;4.38;3.53;;;17.00;99.90;;;;;;4998438;28;20476;-89
2021/07/08 00:06:59;;;;;;;4.57;3.58;;;17.00;99.90;;;;;;4997988;28;20491;-88
2021/07/08 00:09:25;;;;;;;5.28;4.25;;;17.00;99.90;;;;;;4998445;28;20014;-88
2021/07/08 00:11:50;;;;;;;5.70;4.03;;;17.00;99.90;;;;;;5016246;28;20053;-88
2021/07/08 00:14:16;;;;;;;5.07;3.80;;;16.90;99.90;;;;;;4998467;28;20046;-88
2021/07/08 00:16:41;;;;;;;4.68;3.70;;;16.80;99.90;;;;;;4998432;28;20049;-88
2021/07/08 00:19:08;;;;;;;4.70;3.47;;;16.80;99.90;;;;;;5015561;28;20045;-89
2021/07/08 00:21:36;;;;;;;5.30;3.83;;;16.80;99.90;;;;;;4998433;28;20112;-89
2021/07/08 00:24:01;;;;;;;4.65;4.10;;;16.90;99.90;;;;;;4998827;28;20057;-90
2021/07/08 00:26:27;;;;;;;5.45;4.20;;;16.90;99.90;;;;;;5016815;28;20042;-89
2021/07/08 00:28:53;;;;;;;6.70;4.18;;;16.90;99.90;;;;;;5001500;28;20021;-90
2021/07/08 00:31:20;;;;;;;7.20;4.03;;;16.90;99.90;;;;;;5023402;28;20072;-89
2021/07/08 00:33:46;;;;;;;6.20;3.65;;;16.90;99.90;;;;;;5000054;28;20113;-89
2021/07/08 00:36:12;;;;;;;5.35;4.15;;;16.90;99.90;;;;;;5000364;28;20048;-88
2021/07/08 00:38:38;;;;;;;5.13;4.13;;;16.90;99.90;;;;;;5022260;28;20045;-90
2021/07/08 00:41:03;;;;;;;6.55;4.38;;;16.90;99.90;;;;;;5022310;28;20026;-90
2021/07/08 00:43:30;;;;;;;5.18;4.45;;;16.80;99.90;;;;;;5021736;28;20066;-90
2021/07/08 00:45:57;;;;;;;5.57;4.13;;;16.70;99.90;;;;;;5022082;28;20018;-91
2021/07/08 00:48:25;;;;;;;4.75;3.63;;;16.70;99.90;;;;;;5021805;28;20010;-89
2021/07/08 00:50:51;;;;;;;5.13;3.88;;;16.70;99.90;;;;;;5021969;28;20017;-89
2021/07/08 00:53:21;;;;;;;5.45;4.10;;;16.70;99.90;;;;;;5021181;28;20029;-88
2021/07/08 00:55:57;;;;;;;6.68;4.00;;;16.70;99.90;;;;;;5020748;28;20049;-89
2021/07/08 00:58:23;;;;;;;5.55;4.30;;;16.80;99.90;;;;;;5020899;28;20010;-89
2021/07/08 01:00:49;;;;;;;5.47;4.10;;;16.80;99.90;;;;;;5020776;28;20021;-89
2021/07/08 01:03:16;;;;;;;5.20;4.03;;;16.80;99.90;;;;;;5012970;28;20029;-89
2021/07/08 01:05:44;;;;;;;5.15;3.85;;;16.80;99.90;;;;;;4998603;28;20018;-89
2021/07/08 01:08:12;;;;;;;6.00;4.45;;;16.80;99.90;;;;;;4999039;28;20068;-90
2021/07/08 01:10:38;;;;;;;6.05;3.78;;;16.80;99.90;;;;;;4998459;28;20492;-89
2021/07/08 01:13:04;;;;;;;7.80;4.50;;;16.90;99.90;;;;;;4998406;28;20457;-89
2021/07/08 01:15:30;;;;;;;5.93;4.60;;;16.80;99.90;;;;;;5014938;28;20026;-90
2021/07/08 01:17:56;;;;;;;5.70;4.60;;;16.80;99.90;;;;;;4997930;28;20018;-89
2021/07/08 01:20:30;;;;;;;5.35;4.30;;;16.70;99.90;;;;;;4998362;28;20091;-89
2021/07/08 01:22:59;;;;;;;5.72;4.03;;;16.70;99.90;;;;;;4997884;28;20120;-90
2021/07/08 01:25:42;;;;;;;6.13;4.35;;;16.70;99.90;;;;;;4997715;28;20103;-89
2021/07/08 01:28:09;;;;;;;4.45;3.75;;;16.70;99.90;;;;;;4996985;28;20172;-89
2021/07/08 01:30:35;;;;;;;4.93;3.80;;;16.80;99.90;;;;;;4997021;28;20549;-89
2021/07/08 01:33:03;;;;;;;5.85;4.15;;;16.80;99.90;;;;;;4997201;28;20033;-90
2021/07/08 01:35:29;;;;;;;6.70;5.03;;;16.80;99.90;;;;;;4998122;28;20025;-89
2021/07/08 01:37:56;;;;;;;6.05;4.70;;;16.90;99.90;;;;;;4997802;28;20037;-89
2021/07/08 01:40:22;;;;;;;5.57;4.05;;;16.90;99.90;;;;;;4996735;28;20026;-89
2021/07/08 01:42:48;;;;;;;5.85;4.20;;;17.00;99.90;;;;;;4996752;28;20026;-89
2021/07/08 01:45:15;;;;;;;6.47;4.47;;;17.00;99.90;;;;;;5013898;28;20084;-89
2021/07/08 01:47:43;;;;;;;6.10;4.63;;;17.10;99.90;;;;;;4996970;28;20443;-88
2021/07/08 01:50:12;;;;;;;6.18;4.43;;;17.10;99.90;;;;;;4996958;28;20018;-89
2021/07/08 01:52:37;;;;;;;5.07;3.90;;;17.10;99.90;;;;;;4996354;28;20030;-90
2021/07/08 01:55:03;;;;;;;5.78;4.70;;;17.10;99.90;;;;;;5013875;28;20132;-89
2021/07/08 01:57:29;;;;;;;6.00;4.82;;;17.10;99.90;;;;;;4996179;28;20492;-90
2021/07/08 01:59:55;;;;;;;5.85;4.40;;;17.10;99.90;;;;;;5013531;28;20033;-90
2021/07/08 02:02:20;;;;;;;5.28;4.18;;;17.00;99.90;;;;;;4995785;28;20484;-88
2021/07/08 02:04:46;;;;;;;5.80;4.47;;;17.00;99.90;;;;;;5013055;28;20104;-90
2021/07/08 02:07:12;;;;;;;5.18;4.22;;;17.00;99.90;;;;;;4995674;28;20416;-89
2021/07/08 02:09:37;;;;;;;4.88;4.10;;;17.00;99.90;;;;;;4995592;28;20109;-89
2021/07/08 02:12:03;;;;;;;4.63;4.07;;;17.00;99.90;;;;;;5012741;28;20464;-89
2021/07/08 02:14:29;;;;;;;5.45;4.50;;;17.00;99.90;;;;;;4995416;28;20037;-89
2021/07/08 02:16:55;;;;;;;5.40;4.10;;;17.00;99.90;;;;;;4996160;28;20029;-88
2021/07/08 02:19:21;;;;;;;5.70;4.40;;;17.00;99.90;;;;;;4996467;28;20022;-88
2021/07/08 02:21:48;;;;;;;5.30;4.22;;;16.90;99.90;;;;;;4996251;28;20503;-88
2021/07/08 02:24:13;;;;;;;6.78;5.13;;;16.90;99.90;;;;;;4995985;28;20025;-90
2021/07/08 02:26:39;;;;;;;6.80;5.20;;;16.90;99.90;;;;;;4995901;28;20093;-88
2021/07/08 02:29:04;;;;;;;5.60;4.63;;;16.80;99.90;;;;;;4996082;28;20109;-89
2021/07/08 02:31:30;;;;;;;6.47;4.65;;;16.70;99.90;;;;;;4995982;28;20117;-89
2021/07/08 02:33:56;;;;;;;5.40;4.35;;;16.70;99.90;;;;;;4996158;28;20025;-89
2021/07/08 02:36:21;;;;;;;6.55;4.88;;;16.60;99.90;;;;;;4996406;28;20476;-89
2021/07/08 02:38:47;;;;;;;6.28;4.70;;;16.60;99.90;;;;;;4996071;28;20065;-88
2021/07/08 02:41:13;;;;;;;6.00;4.65;;;16.50;99.90;;;;;;4995695;28;20087;-90
2021/07/08 02:43:39;;;;;;;5.75;5.00;;;16.60;99.90;;;;;;4995828;28;20049;-89
2021/07/08 02:46:05;;;;;;;6.30;4.55;;;16.60;99.90;;;;;;5016968;28;20030;-88
2021/07/08 02:48:31;;;;;;;5.10;4.15;;;16.50;99.90;;;;;;5017478;28;20037;-90
2021/07/08 02:50:57;;;;;;;6.63;5.00;;;16.50;99.90;;;;;;4999851;28;20044;-90
2021/07/08 02:53:23;;;;;;;5.55;4.95;;;16.50;99.90;;;;;;4999614;28;20376;-89
2021/07/08 02:55:49;;;;;;;5.85;5.18;;;16.50;99.90;;;;;;4999375;28;20041;-88
2021/07/08 02:58:15;;;;;;;6.05;4.88;;;16.50;99.90;;;;;;4999922;28;20056;-90
2021/07/08 03:00:41;;;;;;;5.72;4.35;;;16.50;99.90;;;;;;4999594;28;20412;-89
2021/07/08 03:03:07;;;;;;;6.30;4.93;;;16.50;99.90;;;;;;4999456;28;20076;-90
2021/07/08 03:05:33;;;;;;;4.90;4.35;;;16.60;99.90;;;;;;5000080;28;20105;-90
2021/07/08 03:08:00;;;;;;;5.68;4.57;;;16.60;99.90;;;;;;5017708;28;20066;-88
2021/07/08 03:10:27;;;;;;;5.32;4.63;;;16.70;99.90;;;;;;5017249;28;20026;-89
2021/07/08 03:12:54;;;;;;;6.38;4.45;;;16.70;99.90;;;;;;4999497;28;20029;-89
2021/07/08 03:15:20;;;;;;;6.15;4.63;;;16.70;99.90;;;;;;4999082;28;20022;-89
2021/07/08 03:17:47;;;;;;;5.85;4.60;;;16.70;99.90;;;;;;5016499;28;20026;-89
2021/07/08 03:20:19;;;;;;;6.35;4.70;;;16.70;99.90;;;;;;4999453;28;20029;-89
2021/07/08 03:22:45;;;;;;;5.20;4.05;;;16.80;99.90;;;;;;4999257;28;20030;-89
2021/07/08 03:25:12;;;;;;;6.20;4.55;;;16.80;99.90;;;;;;5016768;28;20022;-88
2021/07/08 03:27:38;;;;;;;6.43;4.65;;;16.90;99.90;;;;;;4998951;28;20038;-88
2021/07/08 03:30:06;;;;;;;8.23;4.65;;;16.90;99.90;;;;;;4999271;28;20018;-89
2021/07/08 03:32:31;;;;;;;5.32;4.82;;;16.90;99.90;;;;;;5016860;28;20093;-89
2021/07/08 03:34:57;;;;;;;5.80;5.05;;;16.90;99.90;;;;;;4999400;28;20103;-90
2021/07/08 03:37:23;;;;;;;7.78;5.25;;;16.90;99.90;;;;;;4999085;28;20523;-88
2021/07/08 03:39:48;;;;;;;5.47;4.45;;;17.00;99.90;;;;;;4999234;28;20468;-88
2021/07/08 03:42:14;;;;;;;7.63;4.35;;;17.00;99.90;;;;;;4999335;28;20105;-89
2021/07/08 03:44:39;;;;;;;6.60;4.70;;;17.00;99.90;;;;;;4998775;28;20542;-90
2021/07/08 03:47:05;;;;;;;5.55;4.95;;;17.00;99.90;;;;;;4998792;28;20042;-87
2021/07/08 03:49:31;;;;;;;6.18;4.65;;;17.10;99.90;;;;;;4999165;28;20022;-89
2021/07/08 03:51:56;;;;;;;7.45;5.00;;;17.10;99.90;;;;;;4998925;28;20072;-88
2021/07/08 03:54:22;;;;;;;4.90;4.35;;;17.10;99.90;;;;;;4998462;28;20033;-90
2021/07/08 03:56:47;;;;;;;6.22;5.25;;;17.10;99.90;;;;;;4998047;28;20052;-88
2021/07/08 03:59:13;;;;;;;6.68;5.15;;;17.10;99.90;;;;;;4998705;28;20088;-87
2021/07/08 04:01:39;;;;;;;5.35;4.80;;;17.10;99.90;;;;;;4998721;28;20074;-88
2021/07/08 04:04:05;;;;;;;6.60;4.82;;;17.10;99.90;;;;;;4998641;28;20014;-90
2021/07/08 04:06:31;;;;;;;6.00;4.57;;;17.10;99.90;;;;;;5016192;28;20042;-89
2021/07/08 04:08:56;;;;;;;5.93;5.03;;;17.10;99.90;;;;;;4998740;28;20029;-89
2021/07/08 04:11:22;;;;;;;6.85;5.10;;;17.10;99.90;;;;;;4998637;28;20467;-89
2021/07/08 04:13:47;;;;;;;6.80;4.93;;;17.10;99.90;;;;;;4998743;28;20014;-90
2021/07/08 04:16:13;;;;;;;6.57;5.28;;;17.10;99.90;;;;;;4998487;28;20384;-90
2021/07/08 04:18:39;;;;;;;6.50;5.15;;;17.20;99.90;;;;;;4998794;28;20018;-89
2021/07/08 04:21:04;;;;;;;7.60;5.13;;;17.20;99.90;;;;;;4998462;28;20040;-90
2021/07/08 04:23:30;;;;;;;6.72;5.25;;;17.20;99.90;;;;;;5015628;28;20022;-89
2021/07/08 04:25:55;;;;;;;7.38;4.97;;;17.20;99.90;;;;;;4998001;28;20018;-88
2021/07/08 04:28:21;;;;;;;5.68;4.78;;;17.20;99.90;;;;;;4998173;28;20033;-89
2021/07/08 04:30:47;;;;;;;5.72;4.43;;;17.10;99.90;;;;;;4998253;28;20029;-89
2021/07/08 04:33:12;;;;;;;5.78;4.75;;;17.10;99.90;;;;;;4998029;28;20055;-88
2021/07/08 04:35:41;;;;;;;6.28;4.95;;;17.20;99.90;;;;;;4999294;28;20076;-89
2021/07/08 04:38:08;;;;;;;6.13;4.70;;;17.20;99.90;;;;;;4998157;28;20042;-88
2021/07/08 04:40:35;;;;;;;8.15;5.50;;;17.30;99.90;;;;;;5015603;28;20100;-89
2021/07/08 04:43:01;;;;;;;6.95;5.13;;;17.20;99.90;;;;;;4997684;28;20022;-88
2021/07/08 04:45:27;;;;;;;6.53;4.93;;;17.30;99.90;;;;;;4997631;28;20464;-88
2021/07/08 04:47:53;;;;;;;7.85;5.20;;;17.30;99.90;;;;;;5000885;28;20028;-89
2021/07/08 04:50:20;;;;;;;6.18;5.18;;;17.30;99.90;;;;;;4997591;28;20047;-88
2021/07/08 04:52:48;;;;;;;6.07;4.78;;;17.30;99.90;;;;;;4997440;28;20387;-89
2021/07/08 04:55:15;;;;;;;5.50;4.80;;;17.30;99.90;;;;;;4997125;28;20113;-87
2021/07/08 04:57:41;;;;;;;6.75;5.05;;;17.30;99.90;;;;;;5014867;28;20054;-90
2021/07/08 05:00:10;;;;;;;6.43;5.30;;;17.40;99.90;;;;;;5013679;28;20033;-87
2021/07/08 05:02:37;;;;;;;7.90;4.93;;;17.50;99.90;;;;;;4995816;28;20069;-89
2021/07/08 05:05:05;;;;;;;7.07;5.07;;;17.50;99.90;;;;;;5013482;28;20164;-88
2021/07/08 05:07:34;;;;;;;5.70;5.07;;;17.60;99.90;;;;;;4995827;28;20042;-90
2021/07/08 05:09:59;;;;;;;6.60;5.75;;;17.60;99.90;;;;;;4997191;28;20033;-90
2021/07/08 05:12:25;;;;;;;6.47;5.68;;;17.60;99.90;;;;;;4996588;28;20026;-90
2021/07/08 05:14:51;;;;;;;7.68;5.55;;;17.60;99.90;;;;;;4998018;28;20029;-90
2021/07/08 05:17:18;;;;;;;6.90;5.35;;;17.70;99.90;;;;;;4996951;28;20116;-89
2021/07/08 05:19:44;;;;;;;6.03;4.82;;;17.80;99.90;;;;;;4997603;28;20018;-90
2021/07/08 05:22:09;;;;;;;6.63;5.68;;;17.90;99.90;;;;;;4998035;28;20076;-93
2021/07/08 05:24:39;;;;;;;11.65;5.85;;;17.90;99.90;;;;;;4997953;28;20054;-91
2021/07/08 05:27:05;;;;;;;12.50;5.47;;;18.00;99.90;;;;;;4997956;28;20045;-88
2021/07/08 05:29:31;;;;;;;6.78;5.82;;;18.10;99.90;;;;;;4997865;28;20030;-90
2021/07/08 05:31:56;;;;;;;10.73;5.88;;;18.20;99.90;;;;;;5001004;28;20049;-89
2021/07/08 05:34:22;;;;;;;7.90;6.03;;;18.20;99.90;;;;;;5028338;28;20023;-90
2021/07/08 05:36:48;;;;;;;9.80;6.32;;;18.30;99.90;;;;;;5028876;28;20061;-90
2021/07/08 05:39:13;;;;;;;9.38;6.13;;;18.30;99.90;;;;;;5013408;28;20101;-89
2021/07/08 05:41:39;;;;;;;7.22;5.45;;;18.30;99.90;;;;;;5010543;28;20118;-88
2021/07/08 05:44:06;;;;;;;7.47;6.28;;;18.40;99.90;;;;;;5029255;28;20041;-89
2021/07/08 05:46:31;;;;;;;7.03;5.82;;;18.40;99.90;;;;;;5010998;28;20026;-88
2021/07/08 05:48:57;;;;;;;8.05;5.88;;;18.40;99.90;;;;;;5009254;28;20026;-88
2021/07/08 05:51:22;;;;;;;11.00;7.07;;;18.50;99.90;;;;;;5010363;28;20105;-84
2021/07/08 05:53:48;;;;;;;10.65;7.22;;;18.50;99.90;;;;;;5031826;28;20056;-85
2021/07/08 05:56:14;;;;;;;12.07;8.73;;;18.60;99.90;;;;;;5019814;28;20088;-85
2021/07/08 05:58:39;;;;;;;8.57;7.68;;;18.70;99.90;;;;;;5043379;28;20014;-84
2021/07/08 06:01:05;;;;;;;10.45;7.43;;;18.70;99.90;;;;;;5044147;28;20026;-84
2021/07/08 06:03:30;;;;;;;10.77;8.15;;;18.70;99.90;;;;;;5025789;28;20022;-84
2021/07/08 06:05:56;;;;;;;10.43;8.27;;;18.70;99.90;;;;;;5043140;28;20037;-83
2021/07/08 06:08:21;;;;;;;8.70;7.10;;;18.60;99.90;;;;;;5026159;28;20025;-85
2021/07/08 06:10:47;;;;;;;10.63;7.45;;;18.60;99.90;;;;;;5041578;28;20105;-84
2021/07/08 06:13:13;;;;;;;9.00;7.70;;;18.60;99.90;;;;;;5023061;28;20068;-84
2021/07/08 06:15:40;;;;;;;9.68;7.57;;;18.60;99.90;;;;;;5026515;28;20041;-83
2021/07/08 06:18:06;;;;;;;8.98;7.28;;;18.60;99.90;;;;;;5025088;28;20017;-83
2021/07/08 06:20:32;;;;;;;9.88;7.60;;;18.60;99.90;;;;;;5033114;28;20056;-83
2021/07/08 06:22:57;;;;;;;9.40;7.03;;;18.70;99.90;;;;;;5030973;28;20025;-84
2021/07/08 06:25:26;;;;;;;10.48;8.20;;;18.70;99.90;;;;;;5029282;28;20033;-84
2021/07/08 06:27:52;;;;;;;11.77;9.80;;;18.70;99.90;;;;;;5049839;28;20064;-89
2021/07/08 06:30:18;;;;;;;10.00;8.52;;;18.60;99.90;;;;;;5020025;28;20018;-90
2021/07/08 06:32:44;;;;;;;10.18;7.60;;;18.70;99.90;;;;;;5014188;28;20034;-90
2021/07/08 06:35:12;;;;;;;9.23;7.75;;;18.70;99.90;;;;;;5033174;28;20010;-89
2021/07/08 06:37:38;;;;;;;9.55;7.75;;;18.80;99.90;;;;;;5008638;28;20030;-90
2021/07/08 06:40:05;;;;;;;9.75;8.43;;;18.80;99.90;;;;;;5010309;28;20425;-89
2021/07/08 06:42:31;;;;;;;8.88;7.18;;;18.90;99.90;;;;;;5033658;28;20030;-90
2021/07/08 06:44:56;;;;;;;8.55;7.00;;;18.90;99.90;;;;;;5023274;28;20022;-89
2021/07/08 06:47:22;;;;;;;9.55;8.23;;;18.90;99.90;;;;;;5032471;28;20026;-91
2021/07/08 06:49:48;;;;;;;10.30;7.20;;;18.90;99.90;;;;;;5050595;28;20026;-90
2021/07/08 06:52:16;;;;;;;7.55;6.72;;;18.90;99.90;;;;;;5050976;28;20033;-90
2021/07/08 06:54:42;;;;;;;8.10;6.68;;;18.90;99.90;;;;;;5046430;28;20022;-90
2021/07/08 06:57:07;;;;;;;9.45;7.47;;;18.90;99.90;;;;;;5039003;28;20049;-91
2021/07/08 06:59:33;;;;;;;10.70;8.15;;;19.00;99.90;;;;;;5021190;28;20080;-90
2021/07/08 07:01:59;;;;;;;9.27;7.88;;;19.00;99.90;;;;;;5020803;28;20116;-90
2021/07/08 07:04:25;;;;;;;8.15;7.10;;;19.00;99.90;;;;;;5020964;28;20029;-91
2021/07/08 07:06:50;;;;;;;8.82;6.90;;;19.00;99.90;;;;;;5020617;28;20044;-91
2021/07/08 07:09:16;;;;;;;8.27;6.85;;;19.10;99.90;;;;;;5020720;28;20021;-90
2021/07/08 07:11:41;;;;;;;10.88;7.75;;;19.10;99.90;;;;;;5020495;28;20025;-91
2021/07/08 07:14:07;;;;;;;8.35;7.10;;;19.20;99.90;;;;;;5021058;28;20017;-92
2021/07/08 07:16:33;;;;;;;8.27;6.03;;;19.30;99.90;;;;;;5020767;28;20483;-92
2021/07/08 07:18:58;;;;;;;8.15;6.30;;;19.30;99.90;;;;;;5021485;28;20456;-92
2021/07/08 07:21:24;;;;;;;7.90;6.13;;;19.30;99.90;;;;;;5020792;28;20033;-91
2021/07/08 07:23:50;;;;;;;8.43;6.47;;;19.50;99.90;;;;;;5020089;28;20529;-92
2021/07/08 07:26:20;;;;;;;9.15;7.22;;;19.60;99.90;;;;;;5020090;28;20052;-93
2021/07/08 07:28:45;;;;;;;8.43;7.25;;;19.70;99.90;;;;;;5028364;28;20017;-91
2021/07/08 07:31:11;;;;;;;8.75;7.50;;;19.70;99.90;;;;;;5020501;28;20033;-91
2021/07/08 07:33:37;;;;;;;7.47;6.20;;;19.80;99.90;;;;;;5026333;28;20040;-90
2021/07/08 07:36:03;;;;;;;8.98;7.90;;;19.90;99.90;;;;;;5026801;28;20024;-91
2021/07/08 07:38:28;;;;;;;8.63;6.55;;;20.00;99.90;;;;;;5020555;28;20545;-90
2021/07/08 07:40:55;;;;;;;8.18;6.57;;;20.20;99.90;;;;;;5020085;28;20019;-90
2021/07/08 07:43:21;;;;;;;9.40;8.18;;;20.30;99.90;;;;;;5020337;28;20079;-91
2021/07/08 07:45:49;;;;;;;10.00;6.45;;;20.50;99.90;;;;;;5019507;28;20025;-90
2021/07/08 07:48:14;;;;;;;8.02;6.28;;;20.70;99.90;;;;;;5020091;28;20154;-92
2021/07/08 07:50:40;;;;;;;7.78;6.18;;;20.90;99.90;;;;;;5019792;28;20120;-92
2021/07/08 07:53:06;;;;;;;8.23;5.57;;;21.10;99.90;;;;;;5019296;28;20060;-92
2021/07/08 07:55:32;;;;;;;7.07;5.30;;;21.20;99.90;;;;;;5019404;28;20018;-91
2021/07/08 07:58:00;;;;;;;7.68;4.60;;;21.30;99.90;;;;;;5019730;28;20116;-90
2021/07/08 08:00:26;;;;;;;7.45;4.97;;;21.40;99.90;;;;;;5021005;28;20025;-92
2021/07/08 08:02:52;;;;;;;6.97;5.53;;;21.50;99.90;;;;;;5019254;28;20036;-91
2021/07/08 08:05:33;;;;;;;8.05;5.57;;;21.60;99.90;;;;;;5019037;28;20363;-91
2021/07/08 08:10:47;;;;;;;6.50;5.68;;;21.80;99.90;;;;;;5036159;28;20175;-90
2021/07/08 08:13:13;;;;;;;6.55;5.07;;;21.80;99.90;;;;;;5019160;28;20044;-90
2021/07/08 08:15:39;;;;;;;7.30;5.25;;;21.90;99.90;;;;;;5012451;28;20018;-90
2021/07/08 08:18:05;;;;;;;7.40;5.32;;;22.00;99.90;;;;;;5014990;28;20072;-91
2021/07/08 08:20:31;;;;;;;6.57;5.05;;;22.00;99.90;;;;;;5007983;28;20036;-90
2021/07/08 08:22:57;;;;;;;5.85;4.38;;;22.10;99.90;;;;;;5016269;28;20021;-91
2021/07/08 08:25:23;;;;;;;5.40;4.55;;;22.20;99.90;;;;;;5012689;28;20033;-91
2021/07/08 08:27:50;;;;;;;6.47;4.28;;;22.30;99.90;;;;;;5015112;28;20029;-90
2021/07/08 08:30:16;;;;;;;4.97;4.10;;;22.40;99.90;;;;;;5007858;28;20021;-90
2021/07/08 08:32:42;;;;;;;5.28;4.25;;;22.50;99.90;;;;;;4998728;28;20535;-90
2021/07/08 08:35:09;;;;;;;6.07;4.32;;;22.60;99.90;;;;;;5024578;28;20017;-90
2021/07/08 08:37:35;;;;;;;6.57;4.55;;;22.70;99.90;;;;;;5006752;28;20037;-89
2021/07/08 08:40:01;;;;;;;6.45;4.40;;;22.80;99.90;;;;;;5007696;28;20022;-90
2021/07/08 08:42:27;;;;;;;7.72;4.45;;;22.90;99.90;;;;;;5015364;28;20017;-90
2021/07/08 08:44:54;;;;;;;6.85;4.55;;;22.90;99.90;;;;;;5028359;28;20017;-90
2021/07/08 08:47:20;;;;;;;6.25;4.30;;;22.90;99.90;;;;;;5007973;28;20125;-89
2021/07/08 08:49:46;;;;;;;5.75;3.90;;;23.00;99.90;;;;;;5011555;28;20091;-90
2021/07/08 08:52:13;;;;;;;5.85;4.00;;;23.10;99.90;;;;;;5011505;28;20439;-91
2021/07/08 08:54:42;;;;;;;5.65;4.15;;;23.10;99.90;;;;;;5023124;28;20018;-91
2021/07/08 08:57:10;;;;;;;4.53;3.55;;;23.10;99.90;;;;;;4997885;28;20050;-92
2021/07/08 08:59:36;;;;;;;6.10;3.30;;;23.10;99.90;;;;;;4996055;28;20010;-92
2021/07/08 09:02:19;;;;;;;5.45;3.50;;;23.10;99.90;;;;;;5000280;28;20053;-92
2021/07/08 09:04:48;;;;;;;;;;;23.30;99.90;;;;;;5002025;28;20049;-91
2021/07/08 09:09:44;;;;;;;5.63;3.40;;;23.70;99.90;;;;;;4991008;28;20051;-91
2021/07/08 09:12:14;;;;;;;6.15;3.30;;;23.90;99.90;;;;;;4978684;28;20027;-90
2021/07/08 09:14:40;;;;;;;4.85;2.95;;;23.90;99.90;;;;;;4992748;28;20571;-90
2021/07/08 09:17:18;;;;;;;4.28;2.95;;;24.00;99.90;;;;;;4992050;28;20042;-89
2021/07/08 09:19:47;;;;;;;3.65;3.13;;;24.20;99.90;;;;;;4992127;28;20026;-90
2021/07/08 09:22:29;;;;;;;6.40;2.88;;;24.20;99.90;;;;;;4994856;28;20030;-88
2021/07/08 09:24:58;;;;;;;4.65;2.60;;;24.40;99.90;;;;;;5004224;28;20019;-89
2021/07/08 09:27:27;;;;;;;4.80;2.40;;;24.50;99.90;;;;;;5001792;28;20374;-88
2021/07/08 09:29:54;;;;;;;3.28;2.53;;;24.50;99.90;;;;;;5001582;28;20105;-89
2021/07/08 09:32:22;;;;;;;5.03;2.70;;;24.60;99.90;;;;;;5000143;28;20057;-91
2021/07/08 09:34:53;;;;;;;4.38;2.65;;;24.60;99.90;;;;;;4997852;28;20029;-92
2021/07/08 09:37:27;;;;;;;3.22;2.40;;;24.80;99.90;;;;;;4997504;28;20030;-91
2021/07/08 09:39:56;;;;;;;5.25;2.72;;;25.30;99.90;;;;;;4987321;28;20022;-93
2021/07/08 09:42:41;;;;;;;3.80;2.22;;;25.70;99.90;;;;;;4996124;28;20102;-91
2021/07/08 09:45:17;;;;;;;6.90;2.60;;;26.00;99.90;;;;;;4995267;28;20502;-93
2021/07/08 09:47:47;;;;;;;5.65;3.15;;;26.40;99.90;;;;;;4994824;28;20034;-91
2021/07/08 09:50:30;;;;;;;5.57;3.08;;;27.20;99.90;;;;;;4996527;28;20085;-92
2021/07/08 09:53:05;;;;;;;5.45;2.30;;;28.00;99.80;;;;;;5009980;28;20026;-92
2021/07/08 09:56:03;;;;;;;7.03;2.78;;;28.30;99.30;;;;;;4993875;28;20015;-90
2021/07/08 09:58:31;;;;;;;4.13;2.25;;;28.10;98.80;;;;;;5002820;28;20022;-92
2021/07/08 10:00:58;;;;;;;4.38;2.70;;;28.00;98.70;;;;;;4996299;28;20440;-92
2021/07/08 10:03:28;;;;;;;6.07;2.72;;;28.20;97.80;;;;;;5000327;28;20096;-92
2021/07/08 10:05:55;;;;;;;4.03;2.00;;;28.50;97.10;;;;;;5001989;28;20067;-91
2021/07/08 10:08:21;;;;;;;4.80;1.90;;;29.00;96.90;;;;;;5000954;28;20141;-91
2021/07/08 10:10:48;;;;;;;4.95;1.90;;;29.50;96.10;;;;;;5007024;28;20027;-90
2021/07/08 10:13:16;;;;;;;2.65;1.95;;;29.90;95.60;;;;;;5005344;28;20061;-88
2021/07/08 10:15:44;;;;;;;2.47;1.85;;;29.80;95.20;;;;;;5003419;28;20030;-89
2021/07/08 10:18:12;;;;;;;4.50;2.08;;;29.30;95.30;;;;;;5012815;28;20038;-92
2021/07/08 10:20:41;;;;;;;3.72;2.13;;;28.50;95.40;;;;;;4992914;28;20033;-91
2021/07/08 10:23:08;;;;;;;3.45;2.00;;;27.80;95.50;;;;;;5012664;28;20059;-90
2021/07/08 10:25:34;;;;;;;4.57;2.38;;;27.10;96.10;;;;;;4996345;28;20015;-89
2021/07/08 10:28:01;;;;;;;4.85;2.40;;;26.70;96.50;;;;;;4999091;28;20645;-90
2021/07/08 10:30:28;;;;;;;5.88;2.40;;;26.30;97.00;;;;;;5014303;28;20053;-89
2021/07/08 10:32:58;;;;;;;3.72;2.10;;;26.70;97.00;;;;;;5000326;28;20030;-91
2021/07/08 10:35:43;;;;;;;3.30;1.90;;;27.60;96.40;;;;;;5005725;28;20019;-88
2021/07/08 10:38:38;;;;;;;4.38;2.08;;;28.60;95.40;;;;;;5004374;28;20037;-91
2021/07/08 10:41:10;;;;;;;6.38;2.17;;;29.50;94.80;;;;;;4998589;28;20023;-89
2021/07/08 10:43:43;;;;;;;5.13;2.03;;;30.20;93.80;;;;;;5004625;28;20034;-89
2021/07/08 10:46:15;;;;;;;4.30;1.98;;;30.30;93.50;;;;;;5008613;28;20117;-88
2021/07/08 10:48:43;;;;;;;4.00;2.17;;;30.50;92.90;;;;;;4991969;28;20081;-90
2021/07/08 10:51:38;;;;;;;4.45;2.10;;;30.70;92.10;;;;;;5006733;28;20033;-92
2021/07/08 10:54:30;;;;;;;4.13;1.83;;;30.50;91.50;;;;;;4983535;28;20026;-91
2021/07/08 10:56:58;;;;;;;3.13;1.85;;;30.40;91.40;;;;;;4991463;28;20037;-91
2021/07/08 10:59:42;;;;;;;3.95;2.08;;;30.70;91.20;;;;;;5020370;22;20509;-93
2021/07/08 11:02:08;;;;;;;4.05;1.73;;;31.20;90.70;;;;;;5005827;28;20109;-91
2021/07/08 11:04:49;;;;;;;2.28;1.60;;;31.20;90.30;;;;;;4989794;28;20051;-92
2021/07/08 11:07:21;;;;;;;3.22;1.50;;;31.40;90.10;;;;;;4978670;28;20447;-89
2021/07/08 11:10:02;;;;;;;4.20;1.58;;;31.70;89.60;;;;;;4992639;28;20451;-88
2021/07/08 11:12:35;;;;;;;3.47;1.65;;;31.90;89.50;;;;;;4977649;28;20027;-88
2021/07/08 11:15:03;;;;;;;4.18;1.98;;;31.90;87.20;;;;;;4993273;28;20037;-89
2021/07/08 11:17:40;;;;;;;5.05;2.08;;;31.90;87.10;;;;;;4993329;28;20019;-91
2021/07/08 11:20:25;;;;;;;5.13;1.98;;;32.00;86.30;;;;;;4992798;28;20023;-90
2021/07/08 11:22:50;;;;;;;3.25;1.77;;;31.80;83.10;;;;;;4979747;28;20019;-92
2021/07/08 11:25:16;;;;;;;3.78;2.00;;;31.70;83.80;;;;;;4995658;28;20032;-89
2021/07/08 11:27:43;;;;;;;4.20;1.70;;;31.80;84.60;;;;;;4995430;28;20121;-90
2021/07/08 11:30:15;;;;;;;4.00;2.13;;;31.90;84.00;;;;;;4999242;28;20034;-90
2021/07/08 11:32:45;;;;;;;3.90;1.87;;;31.80;84.00;;;;;;4989085;28;20069;-88
2021/07/08 11:37:54;;;;;;;2.92;1.50;;;31.60;81.40;;;;;;5009422;28;20042;-88
2021/07/08 11:40:21;;;;;;;2.75;1.30;;;31.60;81.60;;;;;;5010270;28;20027;-87
2021/07/08 11:42:49;;;;;;;4.18;1.50;;;31.80;81.90;;;;;;5007489;28;20014;-88
2021/07/08 11:45:18;;;;;;;3.67;1.50;;;31.80;81.00;;;;;;5018740;28;20027;-87
2021/07/08 11:47:45;;;;;;;3.45;1.73;;;31.50;80.30;;;;;;5005415;28;20034;-88
2021/07/08 11:50:21;;;;;;;3.40;1.63;;;31.30;82.90;;;;;;5003119;28;20094;-90
2021/07/08 11:52:49;;;;;;;4.97;1.65;;;31.40;84.00;;;;;;4995197;28;20018;-90
2021/07/08 11:55:15;;;;;;;2.72;1.70;;;31.60;83.10;;;;;;4997805;28;20038;-88
2021/07/08 11:57:50;;;;;;;3.30;1.65;;;31.90;82.30;;;;;;5002625;28;20033;-88
2021/07/08 12:00:30;;;;;;;3.78;1.83;;;32.10;80.50;;;;;;4996292;28;20062;-89
2021/07/08 12:02:57;;;;;;;3.50;1.60;;;31.90;80.20;;;;;;4995336;28;20050;-88
2021/07/08 12:05:23;;;;;;;3.88;1.65;;;31.90;79.50;;;;;;5003953;28;20032;-89
2021/07/08 12:07:55;;;;;;;3.00;1.38;;;32.00;79.40;;;;;;5014577;28;20027;-88
2021/07/08 12:10:23;;;;;;;3.92;1.60;;;32.30;79.60;;;;;;5014388;28;20113;-88
2021/07/08 12:12:53;;;;;;;3.83;1.77;;;32.50;78.20;;;;;;5016142;28;20022;-89
2021/07/08 12:15:20;;;;;;;4.50;1.60;;;32.40;76.60;;;;;;5002702;28;20022;-88
2021/07/08 12:17:50;;;;;;;3.03;1.60;;;31.80;77.00;;;;;;5007106;28;20007;-87
2021/07/08 12:20:16;;;;;;;2.80;1.50;;;31.50;78.90;;;;;;5002689;28;20049;-92
2021/07/08 12:23:14;;;;;;;3.42;1.45;;;30.90;80.40;;;;;;4998050;28;20505;-91
2021/07/08 12:25:40;;;;;;;1.75;1.05;;;30.30;81.60;;;;;;4961640;28;20100;-91
2021/07/08 12:28:06;;;;;;;3.63;1.75;;;30.20;83.80;;;;;;4998566;28;20031;-88
2021/07/08 12:30:32;;;;;;;4.05;2.22;;;30.20;83.70;;;;;;4995572;28;20054;-88
2021/07/08 12:33:12;;;;;;;2.88;1.83;;;30.30;83.60;;;;;;5005931;28;20026;-88
2021/07/08 12:35:51;;;;;;;2.88;1.70;;;30.60;83.40;;;;;;5003834;28;20045;-88
2021/07/08 12:38:18;;;;;;;3.53;1.60;;;30.60;82.90;;;;;;5038114;23;20041;-87
2021/07/08 12:40:47;;;;;;;1.70;1.30;;;30.60;82.70;;;;;;5044571;28;20124;-87
2021/07/08 12:43:15;;;;;;;3.15;1.30;;;30.70;82.00;;;;;;5044787;28;20025;-89
2021/07/08 12:45:43;;;;;;;2.85;1.35;;;30.80;81.50;;;;;;5025817;28;20108;-88
2021/07/08 12:48:11;;;;;;;3.97;1.40;;;30.90;80.70;;;;;;5047484;28;20021;-92
2021/07/08 12:50:43;;;;;;;2.15;1.17;;;31.00;80.00;;;;;;5036594;28;20550;-91
2021/07/08 12:53:14;;;;;;;3.20;1.40;;;31.10;80.40;;;;;;5033534;28;20051;-90
2021/07/08 12:55:56;;;;;;;2.58;1.65;;;31.10;79.80;;;;;;5034907;28;20442;-90
2021/07/08 12:58:28;;;;;;;3.80;1.27;;;30.80;80.10;;;;;;5035133;28;20028;-93